createdAt,value
2022-11-11T00:01:39.707Z,5.32
2022-11-11T00:04:25.742Z,5.17
2022-11-11T00:07:12.061Z,5.24
2022-11-11T00:09:58.329Z,4.85
2022-11-11T00:12:45.273Z,4.68
2022-11-11T00:15:32.571Z,4.95
2022-11-11T00:18:37.430Z,5.15
2022-11-11T00:21:41.656Z,4.97
2022-11-11T00:24:47.131Z,4.79
2022-11-11T00:27:33.874Z,4.90
2022-11-11T00:30:19.867Z,5.16
2022-11-11T00:33:06.513Z,5.36
2022-11-11T00:35:53.803Z,5.34
2022-11-11T00:38:47.298Z,5.44
2022-11-11T00:41:34.137Z,5.39
2022-11-11T00:44:20.940Z,5.37
2022-11-11T00:47:26.525Z,5.40
2022-11-11T00:50:34.852Z,5.22
2022-11-11T00:53:26.379Z,5.31
2022-11-11T00:56:12.983Z,5.27
2022-11-11T00:58:59.480Z,5.28
2022-11-11T01:01:46.528Z,5.44
2022-11-11T01:04:32.998Z,5.62
2022-11-11T01:07:19.699Z,5.61
2022-11-11T01:10:06.057Z,5.33
2022-11-11T01:13:12.750Z,5.52
2022-11-11T01:16:03.091Z,5.73
2022-11-11T01:18:50.141Z,5.83
2022-11-11T01:21:36.217Z,5.72
2022-11-11T01:24:23.020Z,5.73
2022-11-11T01:27:08.976Z,5.94
2022-11-11T01:29:55.445Z,6.04
2022-11-11T01:32:42.351Z,5.94
2022-11-11T01:35:28.537Z,5.89
2022-11-11T01:38:14.975Z,5.95
2022-11-11T01:41:01.164Z,5.74
2022-11-11T01:43:47.465Z,5.85
2022-11-11T01:46:35.042Z,5.92
2022-11-11T01:49:30.323Z,6.08
2022-11-11T01:52:23.233Z,6.08
2022-11-11T01:55:10.996Z,5.79
2022-11-11T01:58:23.486Z,5.96
2022-11-11T02:01:09.375Z,6.02
2022-11-11T02:04:14.124Z,6.02
2022-11-11T02:07:01.645Z,5.98
2022-11-11T02:09:48.361Z,5.82
2022-11-11T02:12:52.993Z,6.04
2022-11-11T02:15:39.328Z,6.03
2022-11-11T02:18:25.497Z,5.92
2022-11-11T02:21:14.836Z,5.99
2022-11-11T02:24:04.456Z,6.05
2022-11-11T02:26:54.207Z,5.97
2022-11-11T02:29:43.980Z,6.12
2022-11-11T02:32:30.163Z,5.99
2022-11-11T02:35:17.380Z,5.98
2022-11-11T02:38:12.095Z,5.93
2022-11-11T02:41:16.782Z,5.71
2022-11-11T02:44:03.158Z,6.02
2022-11-11T02:46:49.351Z,5.99
2022-11-11T02:49:35.910Z,6.03
2022-11-11T02:52:22.058Z,6.04
2022-11-11T02:55:08.201Z,6.05
2022-11-11T02:57:54.472Z,6.06
2022-11-11T03:00:42.632Z,6.07
2022-11-11T03:03:29.302Z,6.08
2022-11-11T03:06:15.595Z,5.95
2022-11-11T03:09:01.650Z,5.95
2022-11-11T03:11:49.841Z,6.09
2022-11-11T03:14:38.218Z,6.04
2022-11-11T03:17:40.637Z,6.07
2022-11-11T03:20:45.822Z,5.99
2022-11-11T03:23:32.257Z,5.85
2022-11-11T03:26:19.897Z,6.08
2022-11-11T03:29:06.033Z,6.09
2022-11-11T03:31:52.163Z,6.05
2022-11-11T03:34:38.129Z,6.09
2022-11-11T03:37:42.775Z,6.09
2022-11-11T03:40:29.463Z,6.22
2022-11-11T03:43:16.166Z,6.16
2022-11-11T03:46:03.839Z,6.21
2022-11-11T03:48:50.952Z,6.11
2022-11-11T03:51:37.688Z,6.09
2022-11-11T03:54:23.788Z,6.16
2022-11-11T03:57:28.642Z,6.05
2022-11-11T04:00:15.807Z,6.08
2022-11-11T04:03:31.097Z,6.01
2022-11-11T04:06:35.576Z,5.99
2022-11-11T04:09:40.192Z,6.05
2022-11-11T04:12:26.430Z,6.25
2022-11-11T04:15:31.267Z,5.91
2022-11-11T04:18:17.255Z,6.08
2022-11-11T04:21:22.574Z,6.30
2022-11-11T04:24:35.874Z,6.22
2022-11-11T04:27:22.383Z,6.22
2022-11-11T04:30:08.908Z,6.30
2022-11-11T04:32:55.062Z,6.36
2022-11-11T04:35:41.309Z,6.44
2022-11-11T04:38:46.080Z,6.52
2022-11-11T04:41:53.829Z,6.24
2022-11-11T04:44:58.062Z,6.31
2022-11-11T04:47:53.846Z,6.55
2022-11-11T04:50:40.705Z,6.44
2022-11-11T04:53:26.880Z,6.57
2022-11-11T04:56:32.049Z,6.76
2022-11-11T04:59:18.331Z,6.62
2022-11-11T05:02:43.000Z,6.65
2022-11-11T05:05:29.123Z,6.63
2022-11-11T05:08:33.437Z,6.84
2022-11-11T05:11:20.212Z,6.81
2022-11-11T05:14:27.513Z,6.92
2022-11-11T05:17:33.038Z,6.95
2022-11-11T05:20:39.075Z,7.00
2022-11-11T05:23:44.976Z,6.98
2022-11-11T05:26:32.162Z,7.03
2022-11-11T05:29:18.685Z,6.91
2022-11-11T05:32:04.703Z,7.02
2022-11-11T05:34:51.114Z,7.00
2022-11-11T05:37:36.975Z,6.94
2022-11-11T05:40:23.008Z,6.92
2022-11-11T05:43:09.412Z,6.81
2022-11-11T05:45:55.750Z,6.91
2022-11-11T05:49:02.580Z,6.80
2022-11-11T05:51:48.455Z,6.89
2022-11-11T17:40:47.540Z,8.76
2022-11-11T17:43:34.243Z,8.66
2022-11-11T17:46:29.717Z,8.51
2022-11-11T17:49:29.469Z,8.68
2022-11-11T17:52:23.333Z,8.69
2022-11-11T17:55:09.965Z,8.79
2022-11-11T17:58:02.511Z,8.80
2022-11-11T18:00:48.379Z,8.64
2022-11-11T18:03:34.183Z,8.56
2022-11-11T18:06:20.297Z,8.69
2022-11-11T18:09:06.190Z,8.75
2022-11-11T18:11:53.975Z,8.60
2022-11-11T18:14:40.655Z,8.51
2022-11-11T18:17:27.175Z,8.51
2022-11-11T18:20:13.234Z,8.63
2022-11-11T18:22:59.373Z,8.71
2022-11-11T18:25:45.610Z,8.79
2022-11-11T18:28:32.425Z,8.75
2022-11-11T18:31:18.732Z,8.91
2022-11-11T18:34:05.084Z,8.94
2022-11-11T18:36:51.998Z,8.74
2022-11-11T18:39:41.241Z,9.00
2022-11-11T18:42:27.473Z,8.95
2022-11-11T18:45:14.001Z,8.90
2022-11-11T18:47:59.828Z,8.64
2022-11-11T18:50:53.204Z,8.54
2022-11-11T18:53:39.941Z,8.61
2022-11-11T18:56:26.774Z,8.57
2022-11-11T18:59:13.517Z,8.55
2022-11-11T19:01:59.508Z,8.70
2022-11-11T19:04:45.383Z,8.72
2022-11-11T19:07:31.988Z,8.50
2022-11-11T19:10:18.132Z,8.52
2022-11-11T19:13:04.782Z,8.67
2022-11-11T19:15:51.399Z,8.78
2022-11-11T19:18:39.648Z,8.83
2022-11-11T19:21:26.600Z,8.76
2022-11-11T19:24:15.434Z,8.70
2022-11-11T19:27:01.522Z,8.60
2022-11-11T19:29:47.648Z,8.57
2022-11-11T19:32:33.533Z,8.49
2022-11-11T19:35:20.909Z,8.56
2022-11-11T19:38:07.626Z,8.62
2022-11-11T19:40:53.820Z,8.91
2022-11-11T19:43:42.756Z,8.68
2022-11-11T19:46:31.068Z,8.56
2022-11-11T19:49:17.460Z,8.91
2022-11-11T19:52:03.865Z,8.76
2022-11-11T19:54:49.686Z,8.58
2022-11-11T19:57:35.800Z,8.52
2022-11-11T20:00:22.063Z,8.79
2022-11-11T20:03:08.328Z,8.83
2022-11-11T20:05:54.211Z,8.68
2022-11-11T20:08:40.117Z,8.95
2022-11-11T20:11:27.044Z,9.03
2022-11-11T20:14:17.155Z,9.07
2022-11-11T20:17:04.828Z,9.01
2022-11-11T20:19:50.956Z,8.81
2022-11-11T20:22:36.767Z,9.03
2022-11-11T20:25:23.514Z,8.98
2022-11-11T20:28:09.569Z,8.84
2022-11-11T20:30:56.379Z,9.00
2022-11-11T20:33:44.550Z,8.84
2022-11-11T20:36:30.827Z,8.39
2022-11-11T20:39:16.585Z,8.51
2022-11-11T20:42:02.898Z,8.57
2022-11-11T20:44:48.757Z,8.51
2022-11-11T20:47:34.713Z,8.67
2022-11-11T20:50:20.790Z,8.51
2022-11-11T20:53:06.676Z,8.57
2022-11-11T20:55:52.896Z,8.68
2022-11-11T20:58:39.174Z,8.72
2022-11-11T21:01:26.622Z,8.53
2022-11-11T21:04:12.702Z,8.41
2022-11-11T21:06:58.647Z,8.41
2022-11-11T21:09:45.257Z,8.39
2022-11-11T21:12:31.412Z,8.31
2022-11-11T21:15:17.599Z,8.21
2022-11-11T21:18:06.011Z,8.27
2022-11-11T21:20:51.806Z,8.41
2022-11-11T21:23:38.710Z,8.26
2022-11-11T21:26:24.909Z,8.30
2022-11-11T21:29:11.249Z,8.29
2022-11-11T21:31:57.105Z,8.14
2022-11-11T21:34:43.028Z,8.10
2022-11-11T21:37:29.306Z,8.05
2022-11-11T21:40:15.515Z,8.09
2022-11-11T21:43:03.737Z,8.04
2022-11-11T21:45:49.836Z,8.05
2022-11-11T21:48:37.926Z,8.01
2022-11-11T21:51:24.490Z,8.02
2022-11-11T21:54:10.874Z,8.12
2022-11-11T21:56:57.416Z,8.10
2022-11-11T21:59:43.173Z,7.97
2022-11-11T22:02:29.571Z,8.00
2022-11-11T22:05:16.474Z,7.91
2022-11-11T22:08:02.664Z,7.81
2022-11-11T22:10:48.802Z,7.93
2022-11-11T22:13:35.289Z,8.05
2022-11-11T22:16:24.108Z,8.02
2022-11-11T22:19:11.934Z,7.99
2022-11-11T22:21:58.013Z,7.83
2022-11-11T22:24:44.565Z,7.75
2022-11-11T22:27:30.843Z,7.68
2022-11-11T22:30:17.213Z,7.85
2022-11-11T22:33:03.526Z,7.91
2022-11-11T22:35:49.895Z,7.88
2022-11-11T22:38:35.772Z,7.92
2022-11-11T22:41:22.865Z,7.94
2022-11-11T22:44:09.304Z,7.77
2022-11-11T22:46:55.544Z,7.89
2022-11-11T22:49:41.305Z,7.85
2022-11-11T22:52:27.259Z,7.92
2022-11-11T22:55:13.355Z,8.00
2022-11-11T22:57:59.452Z,8.03
2022-11-11T23:00:45.752Z,8.14
2022-11-11T23:03:33.204Z,8.09
2022-11-11T23:06:20.379Z,7.87
2022-11-11T23:09:08.054Z,7.81
2022-11-11T23:11:53.949Z,7.77
2022-11-11T23:14:41.328Z,8.12
2022-11-11T23:17:27.486Z,8.33
2022-11-11T23:20:13.728Z,8.33
2022-11-11T23:23:00.367Z,8.21
2022-11-11T23:25:47.022Z,8.02
2022-11-11T23:28:33.244Z,7.92
2022-11-11T23:31:23.219Z,7.86
2022-11-11T23:34:09.357Z,8.05
2022-11-11T23:36:56.072Z,8.01
2022-11-11T23:39:44.533Z,8.01
2022-11-11T23:42:31.094Z,8.00
2022-11-11T23:45:17.640Z,7.94
2022-11-11T23:48:03.798Z,8.11
2022-11-11T23:50:50.241Z,8.23
2022-11-11T23:53:36.120Z,7.87
2022-11-11T23:56:22.172Z,7.97
2022-11-11T23:59:08.052Z,8.04
